createdAt,value
2019-05-26T00:09:55.714Z,2.53
2019-05-26T00:30:05.318Z,2.18
2019-05-26T00:50:19.316Z,2.35
2019-05-26T01:10:18.898Z,2.45
2019-05-26T01:30:32.845Z,2.93
2019-05-26T01:50:32.304Z,3.32
2019-05-26T02:10:41.766Z,3.14
2019-05-26T02:30:51.299Z,2.96
2019-05-26T02:51:03.029Z,2.57
2019-05-26T03:11:02.521Z,2.39
2019-05-26T03:31:12.885Z,2.47
2019-05-26T03:51:12.419Z,2.32
2019-05-26T04:11:24.169Z,2.87
2019-05-26T04:31:23.575Z,2.12
2019-05-26T04:51:32.986Z,2.46
2019-05-26T05:11:42.414Z,1.96
2019-05-26T05:31:51.859Z,1.77
2019-05-26T05:52:01.334Z,1.36
2019-05-26T06:12:10.850Z,1.31
2019-05-26T06:32:22.839Z,1.46
2019-05-26T06:52:22.320Z,1.53
2019-05-26T07:12:31.892Z,1.72
2019-05-26T07:32:43.852Z,1.56
2019-05-26T07:52:48.881Z,2.06
2019-05-26T08:12:48.563Z,1.38
2019-05-26T08:32:58.608Z,1.46
2019-05-26T08:53:07.440Z,3.02
2019-05-26T09:13:17.393Z,1.17
2019-05-26T09:33:26.951Z,3.59
2019-05-26T09:53:38.923Z,1.32
2019-05-26T10:13:39.647Z,1.46
2019-05-26T10:33:39.218Z,1.69
2019-05-26T10:53:49.811Z,1.87
2019-05-26T11:14:02.448Z,1.68
2019-05-26T11:33:51.240Z,1.73
2019-05-26T11:54:01.343Z,1.80
2019-05-26T12:14:02.446Z,1.92
2019-05-26T12:34:01.229Z,2.01
2019-05-26T12:54:09.802Z,2.24
2019-05-26T13:14:22.133Z,2.72
2019-05-26T13:34:22.042Z,2.62
2019-05-26T13:54:32.214Z,2.67
2019-05-26T14:14:42.342Z,2.71
2019-05-26T14:34:42.011Z,2.79
2019-05-26T14:54:52.814Z,2.94
2019-05-26T15:14:55.503Z,2.83
2019-05-26T15:34:53.614Z,2.94
2019-05-26T15:55:10.281Z,3.11
2019-05-26T16:15:10.196Z,2.74
2019-05-26T16:35:13.155Z,2.02
2019-05-26T16:55:12.620Z,2.33
2019-05-26T17:15:22.187Z,2.23
2019-05-26T17:35:31.959Z,2.18
2019-05-26T17:55:41.511Z,2.19
2019-05-26T18:15:51.040Z,2.07
2019-05-26T18:36:00.654Z,2.39
2019-05-26T18:56:10.123Z,2.33
2019-05-26T19:16:25.591Z,2.74
2019-05-26T19:36:30.582Z,2.73
2019-05-26T19:56:32.767Z,3.14
2019-05-26T20:16:32.215Z,3.30
2019-05-26T20:36:41.852Z,3.37
2019-05-26T20:56:51.333Z,3.47
2019-05-26T21:17:00.816Z,3.72
2019-05-26T21:37:10.432Z,3.72
2019-05-26T21:57:19.973Z,3.84
2019-05-26T22:17:30.161Z,4.36
2019-05-26T22:37:29.569Z,4.34
2019-05-26T22:57:39.083Z,4.64
2019-05-26T23:17:48.471Z,4.84
2019-05-26T23:37:57.890Z,4.98
2019-05-26T23:58:09.839Z,5.60
